createdAt,value
2018-08-08T00:00:07.028Z,999.12
2018-08-08T00:01:06.883Z,999.12
2018-08-08T00:02:07.044Z,999.08
2018-08-08T00:03:06.854Z,999.09
2018-08-08T00:04:07.983Z,999.08
2018-08-08T00:05:06.854Z,999.15
2018-08-08T00:06:06.965Z,999.14
2018-08-08T00:07:06.781Z,999.21
2018-08-08T00:08:06.876Z,999.28
2018-08-08T00:09:06.744Z,999.29
2018-08-08T00:10:06.901Z,999.35
2018-08-08T00:11:06.707Z,999.30
2018-08-08T00:12:08.524Z,999.31
2018-08-08T00:13:19.696Z,999.30
2018-08-08T00:14:06.644Z,999.32
2018-08-08T00:15:06.692Z,999.30
2018-08-08T00:16:06.614Z,999.29
2018-08-08T00:17:06.700Z,999.28
2018-08-08T00:18:06.572Z,999.25
2018-08-08T00:19:06.649Z,999.22
2018-08-08T00:20:06.523Z,999.23
2018-08-08T00:21:06.629Z,999.23
2018-08-08T00:22:06.501Z,999.22
2018-08-08T00:23:06.550Z,999.22
2018-08-08T00:24:06.449Z,999.24
2018-08-08T00:25:06.554Z,999.26
2018-08-08T00:26:06.413Z,999.30
2018-08-08T00:27:06.472Z,999.29
2018-08-08T00:28:06.376Z,999.24
2018-08-08T00:29:06.493Z,999.25
2018-08-08T00:30:06.348Z,999.22
2018-08-08T00:31:06.314Z,999.24
2018-08-08T00:32:06.398Z,999.22
2018-08-08T00:33:06.277Z,999.21
2018-08-08T00:34:06.417Z,999.14
2018-08-08T00:35:06.237Z,999.10
2018-08-08T00:36:06.368Z,999.07
2018-08-08T00:37:06.210Z,999.08
2018-08-08T00:38:06.397Z,999.03
2018-08-08T00:39:06.191Z,999.07
2018-08-08T00:40:06.295Z,999.02
2018-08-08T00:41:06.121Z,999.04
2018-08-08T00:42:06.348Z,999.10
2018-08-08T00:43:06.121Z,999.10
2018-08-08T00:44:06.070Z,999.15
2018-08-08T00:45:06.239Z,999.17
2018-08-08T00:46:06.025Z,999.15
2018-08-08T00:47:07.184Z,999.14
2018-08-08T00:48:06.030Z,999.06
2018-08-08T00:49:06.150Z,999.09
2018-08-08T00:50:05.955Z,999.05
2018-08-08T00:51:06.070Z,999.03
2018-08-08T00:52:05.916Z,999.00
2018-08-08T00:53:06.079Z,999.03
2018-08-08T00:54:05.870Z,999.07
2018-08-08T00:55:05.991Z,999.07
2018-08-08T00:56:05.832Z,999.10
2018-08-08T00:57:05.994Z,999.11
2018-08-08T00:58:05.828Z,999.11
2018-08-08T00:59:05.911Z,999.14
2018-08-08T01:00:05.775Z,999.12
2018-08-08T01:01:05.933Z,999.08
2018-08-08T01:02:05.715Z,999.03
2018-08-08T01:03:05.873Z,998.99
2018-08-08T01:04:05.684Z,998.94
2018-08-08T01:05:05.859Z,998.91
2018-08-08T01:06:05.651Z,998.86
2018-08-08T01:07:05.624Z,998.86
2018-08-08T01:08:05.706Z,998.82
2018-08-08T01:09:05.590Z,998.82
2018-08-08T01:10:05.682Z,998.79
2018-08-08T01:11:05.559Z,998.81
2018-08-08T01:12:05.600Z,998.84
2018-08-08T01:13:05.510Z,998.85
2018-08-08T01:14:05.614Z,998.86
2018-08-08T01:15:05.473Z,998.86
2018-08-08T01:16:05.475Z,998.86
2018-08-08T01:17:05.438Z,998.84
2018-08-08T01:18:07.039Z,998.86
2018-08-08T01:19:05.544Z,998.88
2018-08-08T01:20:05.373Z,998.87
2018-08-08T01:21:05.445Z,998.88
2018-08-08T01:22:05.333Z,998.87
2018-08-08T01:23:05.354Z,998.86
2018-08-08T01:24:05.295Z,998.87
2018-08-08T01:25:05.373Z,998.85
2018-08-08T01:26:05.258Z,998.92
2018-08-08T01:27:05.297Z,999.07
2018-08-08T01:28:05.217Z,999.22
2018-08-08T01:29:06.316Z,999.48
2018-08-08T01:30:05.179Z,999.62
2018-08-08T01:31:05.716Z,999.69
2018-08-08T01:32:05.133Z,999.73
2018-08-08T01:33:05.324Z,999.73
2018-08-08T01:34:07.064Z,999.57
2018-08-08T01:35:05.091Z,999.46
2018-08-08T01:36:05.065Z,999.44
2018-08-08T01:37:05.190Z,999.47
2018-08-08T01:38:05.022Z,999.58
2018-08-08T01:39:05.058Z,999.73
2018-08-08T01:40:04.987Z,999.78
2018-08-08T01:41:05.063Z,999.80
2018-08-08T01:42:04.974Z,999.75
2018-08-08T01:43:04.977Z,999.71
2018-08-08T01:44:04.948Z,999.63
2018-08-08T01:45:04.891Z,999.64
2018-08-08T01:46:04.868Z,999.67
2018-08-08T01:47:04.900Z,999.59
2018-08-08T01:48:04.825Z,999.65
2018-08-08T01:49:04.918Z,999.70
2018-08-08T01:50:04.793Z,999.74
2018-08-08T01:51:04.828Z,999.66
2018-08-08T01:52:04.740Z,999.64
2018-08-08T01:53:04.858Z,999.59
2018-08-08T01:54:04.706Z,999.58
2018-08-08T01:55:04.753Z,999.54
2018-08-08T01:56:04.677Z,999.54
2018-08-08T01:57:04.772Z,999.51
2018-08-08T01:58:04.644Z,999.47
2018-08-08T01:59:04.675Z,999.49
2018-08-08T02:00:04.604Z,999.46
2018-08-08T02:01:04.691Z,999.44
2018-08-08T02:02:04.547Z,999.43
2018-08-08T02:03:04.606Z,999.40
2018-08-08T02:04:04.583Z,999.41
2018-08-08T02:05:04.615Z,999.46
2018-08-08T02:06:04.469Z,999.50
2018-08-08T02:07:05.554Z,999.46
2018-08-08T02:08:04.432Z,999.45
2018-08-08T02:09:04.411Z,999.41
2018-08-08T02:10:04.464Z,999.44
2018-08-08T02:11:04.374Z,999.43
2018-08-08T02:12:09.170Z,999.43
2018-08-08T02:13:04.365Z,999.42
2018-08-08T02:14:04.371Z,999.40
2018-08-08T02:15:04.292Z,999.42
2018-08-08T02:16:04.489Z,999.39
2018-08-08T02:17:04.249Z,999.43
2018-08-08T02:18:04.293Z,999.44
2018-08-08T02:19:04.211Z,999.47
2018-08-08T02:20:04.300Z,999.49
2018-08-08T02:21:04.172Z,999.50
2018-08-08T02:22:04.234Z,999.54
2018-08-08T02:23:04.140Z,999.55
2018-08-08T02:24:04.232Z,999.59
2018-08-08T02:25:04.096Z,999.66
2018-08-08T02:26:04.144Z,999.82
2018-08-08T02:27:04.063Z,999.91
2018-08-08T02:28:04.167Z,1000.01
2018-08-08T02:29:04.011Z,1000.10
2018-08-08T02:30:04.005Z,1000.12
2018-08-08T02:31:03.976Z,1000.19
2018-08-08T02:32:04.082Z,1000.17
2018-08-08T02:33:03.943Z,1000.19
2018-08-08T02:34:03.997Z,1000.16
2018-08-08T02:35:03.897Z,1000.15
2018-08-08T02:36:04.013Z,1000.13
2018-08-08T02:37:03.908Z,1000.14
2018-08-08T02:38:03.924Z,1000.13
2018-08-08T02:39:50.621Z,999.99
2018-08-08T02:40:50.628Z,999.94
2018-08-08T02:42:44.365Z,999.87
2018-08-08T02:43:44.335Z,999.85
2018-08-08T02:44:44.330Z,999.78
2018-08-08T02:45:44.450Z,999.70
2018-08-08T02:46:44.277Z,999.63
2018-08-08T02:47:45.352Z,999.59
2018-08-08T02:48:44.233Z,999.64
2018-08-08T02:49:44.348Z,999.61
2018-08-08T02:50:44.212Z,999.58
2018-08-08T02:51:44.223Z,999.62
2018-08-08T02:52:44.164Z,999.68
2018-08-08T02:53:44.235Z,999.68
2018-08-08T02:54:44.126Z,999.68
2018-08-08T02:55:44.097Z,999.66
2018-08-08T02:56:44.081Z,999.69
2018-08-08T02:57:44.054Z,999.70
2018-08-08T02:58:44.167Z,999.69
2018-08-08T02:59:44.019Z,999.72
2018-08-08T03:00:45.110Z,999.75
2018-08-08T03:01:43.982Z,999.70
2018-08-08T03:02:43.994Z,999.69
2018-08-08T03:03:43.948Z,999.74
2018-08-08T03:04:49.530Z,999.78
2018-08-08T03:05:43.900Z,999.83
2018-08-08T03:06:44.019Z,999.86
2018-08-08T03:07:43.858Z,999.90
2018-08-08T03:08:43.923Z,999.90
2018-08-08T03:09:43.825Z,999.90
2018-08-08T03:10:44.864Z,999.87
2018-08-08T03:11:43.788Z,999.89
2018-08-08T03:12:43.862Z,999.93
2018-08-08T03:13:43.745Z,999.95
2018-08-08T03:14:58.612Z,1000.00
2018-08-08T03:15:43.710Z,1000.02
2018-08-08T03:16:43.701Z,1000.02
2018-08-08T03:17:43.680Z,1000.03
2018-08-08T03:18:49.527Z,1000.04
2018-08-08T03:19:43.645Z,1000.11
2018-08-08T03:20:44.728Z,1000.16
2018-08-08T03:21:43.589Z,1000.22
2018-08-08T03:22:43.559Z,1000.22
2018-08-08T03:23:43.542Z,1000.21
2018-08-08T03:24:43.629Z,1000.22
2018-08-08T03:25:43.503Z,1000.19
2018-08-08T03:26:44.567Z,1000.18
2018-08-08T03:27:43.463Z,1000.21
2018-08-08T03:28:43.554Z,1000.26
2018-08-08T03:29:43.418Z,1000.23
2018-08-08T03:30:43.482Z,1000.27
2018-08-08T03:31:43.391Z,1000.34
2018-08-08T03:32:43.481Z,1000.43
2018-08-08T03:33:43.346Z,1000.44
2018-08-08T03:34:43.393Z,1000.51
2018-08-08T03:35:43.318Z,1000.55
2018-08-08T03:36:43.402Z,1000.59
2018-08-08T03:37:43.268Z,1000.63
2018-08-08T03:38:43.306Z,1000.62
2018-08-08T03:39:43.220Z,1000.63
2018-08-08T03:40:43.318Z,1000.62
2018-08-08T03:41:43.192Z,1000.67
2018-08-08T03:42:43.254Z,1000.74
2018-08-08T03:43:43.156Z,1000.81
2018-08-08T03:44:43.249Z,1000.90
2018-08-08T03:45:43.106Z,1000.86
2018-08-08T03:46:43.099Z,1000.83
2018-08-08T03:47:43.069Z,1000.77
2018-08-08T03:48:43.166Z,1000.75
2018-08-08T03:49:43.033Z,1000.80
2018-08-08T03:50:43.107Z,1000.80
2018-08-08T03:51:42.991Z,1000.82
2018-08-08T03:52:43.097Z,1000.75
2018-08-08T03:53:42.945Z,1000.80
2018-08-08T03:54:43.005Z,1000.82
2018-08-08T03:55:42.910Z,1000.78
2018-08-08T03:56:42.895Z,1000.76
2018-08-08T03:57:42.922Z,1000.64
2018-08-08T03:58:42.946Z,1000.57
2018-08-08T03:59:42.830Z,1000.48
2018-08-08T04:00:42.963Z,1000.53
2018-08-08T04:01:42.791Z,1000.55
2018-08-08T04:02:42.854Z,1000.61
2018-08-08T04:03:42.756Z,1000.64
2018-08-08T04:04:42.763Z,1000.74
2018-08-08T04:05:42.714Z,1000.80
2018-08-08T04:06:42.813Z,1000.90
2018-08-08T04:07:42.668Z,1000.97
2018-08-08T04:08:44.741Z,1001.07
2018-08-08T04:09:42.630Z,1001.17
2018-08-08T04:10:42.723Z,1001.22
2018-08-08T04:11:42.589Z,1001.33
2018-08-08T04:12:42.617Z,1001.37
2018-08-08T04:13:42.550Z,1001.45
2018-08-08T04:14:43.653Z,1001.51
2018-08-08T04:15:42.518Z,1001.53
2018-08-08T04:16:42.536Z,1001.65
2018-08-08T04:17:42.492Z,1001.74
2018-08-08T04:18:43.577Z,1001.86
2018-08-08T04:19:42.427Z,1001.95
2018-08-08T04:20:42.472Z,1002.06
2018-08-08T04:21:42.394Z,1002.18
2018-08-08T04:22:42.368Z,1002.22
2018-08-08T04:23:44.431Z,1002.30
2018-08-08T04:24:42.326Z,1002.35
2018-08-08T04:25:43.428Z,1002.42
2018-08-08T04:26:42.285Z,1002.46
2018-08-08T04:27:43.338Z,1002.49
2018-08-08T04:28:42.270Z,1002.48
2018-08-08T04:29:42.229Z,1002.47
2018-08-08T04:30:42.334Z,1002.47
2018-08-08T04:31:42.181Z,1002.46
2018-08-08T04:32:43.268Z,1002.45
2018-08-08T04:33:42.139Z,1002.43
2018-08-08T04:34:42.263Z,1002.37
2018-08-08T04:35:42.104Z,1002.22
2018-08-08T04:36:43.189Z,1002.11
2018-08-08T04:37:42.075Z,1002.06
2018-08-08T04:38:43.102Z,1001.98
2018-08-08T04:39:42.031Z,1001.97
2018-08-08T04:40:42.098Z,1001.93
2018-08-08T04:41:41.981Z,1001.81
2018-08-08T04:42:42.149Z,1001.76
2018-08-08T04:43:42.034Z,1001.70
2018-08-08T04:44:41.930Z,1001.68
2018-08-08T04:45:41.906Z,1001.69
2018-08-08T04:46:42.074Z,1001.73
2018-08-08T04:47:41.862Z,1001.76
2018-08-08T04:48:41.975Z,1001.81
2018-08-08T04:49:41.827Z,1001.86
2018-08-08T04:50:41.966Z,1001.98
2018-08-08T04:51:41.803Z,1002.12
2018-08-08T04:52:41.833Z,1002.29
2018-08-08T04:53:41.759Z,1002.41
2018-08-08T04:54:41.846Z,1002.44
2018-08-08T04:55:41.731Z,1002.53
2018-08-08T04:56:42.781Z,1002.62
2018-08-08T04:57:41.672Z,1002.64
2018-08-08T04:58:43.714Z,1002.71
2018-08-08T04:59:41.628Z,1002.70
2018-08-08T05:00:41.689Z,1002.66
2018-08-08T05:01:41.589Z,1002.58
2018-08-08T05:02:43.708Z,1002.57
2018-08-08T05:03:41.565Z,1002.54
2018-08-08T05:04:42.637Z,1002.50
2018-08-08T05:05:41.505Z,1002.53
2018-08-08T05:06:41.485Z,1002.57
2018-08-08T05:07:41.530Z,1002.56
2018-08-08T05:08:41.451Z,1002.61
2018-08-08T05:09:41.560Z,1002.69
2018-08-08T05:10:41.413Z,1002.80
2018-08-08T05:11:43.512Z,1002.84
2018-08-08T05:13:33.095Z,1002.99
2018-08-08T05:14:33.073Z,1003.05
2018-08-08T05:15:33.001Z,1003.10
2018-08-08T05:16:32.971Z,1003.13
2018-08-08T05:17:32.957Z,1003.11
2018-08-08T05:18:37.718Z,1003.17
2018-08-08T05:19:32.911Z,1003.13
2018-08-08T05:20:33.022Z,1003.16
2018-08-08T05:21:32.879Z,1003.15
2018-08-08T05:22:32.931Z,1003.14
2018-08-08T05:23:32.836Z,1003.16
2018-08-08T05:24:33.864Z,1003.22
2018-08-08T05:25:32.794Z,1003.23
2018-08-08T05:26:32.858Z,1003.26
2018-08-08T05:27:32.753Z,1003.29
2018-08-08T05:28:32.863Z,1003.28
2018-08-08T05:29:32.710Z,1003.32
2018-08-08T05:30:32.815Z,1003.27
2018-08-08T05:31:32.673Z,1003.27
2018-08-08T05:32:33.727Z,1003.26
2018-08-08T05:33:32.631Z,1003.28
2018-08-08T05:34:32.706Z,1003.28
2018-08-08T05:35:32.599Z,1003.32
2018-08-08T05:36:32.615Z,1003.35
2018-08-08T05:37:32.573Z,1003.38
2018-08-08T05:38:32.633Z,1003.33
2018-08-08T05:39:32.548Z,1003.35
2018-08-08T05:40:32.542Z,1003.35
2018-08-08T05:41:32.469Z,1003.38
2018-08-08T05:42:32.561Z,1003.37
2018-08-08T05:43:32.420Z,1003.35
2018-08-08T05:44:32.467Z,1003.31
2018-08-08T05:45:32.382Z,1003.29
2018-08-08T05:46:32.495Z,1003.30
2018-08-08T05:47:32.345Z,1003.31
2018-08-08T05:48:32.382Z,1003.34
2018-08-08T05:49:32.311Z,1003.34
2018-08-08T05:50:32.396Z,1003.34
2018-08-08T05:51:32.258Z,1003.36
2018-08-08T05:52:32.415Z,1003.31
2018-08-08T05:53:32.259Z,1003.34
2018-08-08T05:54:32.324Z,1003.31
2018-08-08T05:55:32.182Z,1003.29
2018-08-08T05:56:32.232Z,1003.24
2018-08-08T05:57:32.142Z,1003.19
2018-08-08T05:58:32.126Z,1003.19
2018-08-08T05:59:32.127Z,1003.19
2018-08-08T06:00:32.154Z,1003.22
2018-08-08T06:01:32.082Z,1003.16
2018-08-08T06:02:33.590Z,1003.14
2018-08-08T06:03:32.154Z,1003.13
2018-08-08T06:04:32.008Z,1003.16
2018-08-08T06:05:33.184Z,1003.14
2018-08-08T06:06:31.980Z,1003.14
2018-08-08T06:07:32.075Z,1003.19
2018-08-08T06:08:31.949Z,1003.21
2018-08-08T06:09:32.100Z,1003.30
2018-08-08T06:10:31.895Z,1003.25
2018-08-08T06:11:32.000Z,1003.25
2018-08-08T06:12:31.850Z,1003.28
2018-08-08T06:13:33.046Z,1003.32
2018-08-08T06:14:31.871Z,1003.35
2018-08-08T06:15:31.926Z,1003.36
2018-08-08T06:16:31.765Z,1003.37
2018-08-08T06:17:31.933Z,1003.36
2018-08-08T06:18:31.718Z,1003.40
2018-08-08T06:19:31.843Z,1003.43
2018-08-08T06:20:31.686Z,1003.34
2018-08-08T06:21:31.867Z,1003.30
2018-08-08T06:22:31.656Z,1003.27
2018-08-08T06:23:31.619Z,1003.19
2018-08-08T06:24:31.596Z,1003.12
2018-08-08T06:25:31.787Z,1003.13
2018-08-08T06:26:31.560Z,1003.14
2018-08-08T06:27:31.794Z,1003.13
2018-08-08T06:28:31.521Z,1003.05
2018-08-08T06:29:31.718Z,1003.04
2018-08-08T06:30:31.526Z,1003.01
2018-08-08T06:32:22.093Z,1002.88
2018-08-08T06:33:22.217Z,1002.82
2018-08-08T06:34:22.034Z,1002.77
2018-08-08T06:35:22.224Z,1002.79
2018-08-08T06:36:22.038Z,1002.79
2018-08-08T06:37:22.044Z,1002.79
2018-08-08T06:38:21.942Z,1002.90
2018-08-08T06:39:22.051Z,1003.01
2018-08-08T06:40:21.905Z,1003.14
2018-08-08T06:41:22.984Z,1003.25
2018-08-08T06:42:21.863Z,1003.25
2018-08-08T06:43:21.868Z,1003.19
2018-08-08T06:44:21.864Z,1003.16
2018-08-08T06:45:22.004Z,1003.15
2018-08-08T06:46:21.788Z,1003.15
2018-08-08T06:47:21.799Z,1003.16
2018-08-08T06:48:21.753Z,1003.21
2018-08-08T06:49:21.811Z,1003.11
2018-08-08T06:50:21.695Z,1003.09
2018-08-08T06:51:21.724Z,1003.08
2018-08-08T06:52:21.653Z,1003.07
2018-08-08T06:53:21.740Z,1003.07
2018-08-08T06:54:21.631Z,1003.02
2018-08-08T06:56:18.267Z,1002.97
2018-08-08T06:57:18.283Z,1003.01
2018-08-08T06:58:18.223Z,1002.98
2018-08-08T06:59:18.314Z,1002.90
2018-08-08T07:00:18.166Z,1002.86
2018-08-08T07:01:18.237Z,1002.82
2018-08-08T07:02:18.127Z,1002.86
2018-08-08T07:03:18.224Z,1002.84
2018-08-08T07:04:18.109Z,1002.85
2018-08-08T07:05:19.159Z,1002.88
2018-08-08T07:06:18.056Z,1002.91
2018-08-08T07:07:18.019Z,1002.97
2018-08-08T07:08:17.996Z,1002.92
2018-08-08T07:09:18.146Z,1002.96
2018-08-08T07:10:17.978Z,1002.98
2018-08-08T07:11:18.150Z,1002.91
2018-08-08T07:12:17.914Z,1002.95
2018-08-08T07:13:18.064Z,1003.03
2018-08-08T07:14:17.909Z,1003.03
2018-08-08T07:15:17.989Z,1003.00
2018-08-08T07:16:17.856Z,1002.96
2018-08-08T07:17:17.987Z,1002.94
2018-08-08T07:18:17.794Z,1002.90
2018-08-08T07:19:17.918Z,1002.93
2018-08-08T07:20:17.768Z,1002.99
2018-08-08T07:21:17.911Z,1003.00
2018-08-08T07:22:17.740Z,1002.98
2018-08-08T07:23:17.710Z,1002.96
2018-08-08T07:24:17.828Z,1002.91
2018-08-08T07:25:17.675Z,1002.92
2018-08-08T07:26:17.859Z,1002.92
2018-08-08T07:27:17.608Z,1002.88
2018-08-08T07:28:17.754Z,1002.91
2018-08-08T07:29:17.596Z,1002.90
2018-08-08T07:30:17.769Z,1002.91
2018-08-08T07:31:17.531Z,1002.90
2018-08-08T07:32:17.797Z,1002.86
2018-08-08T07:33:17.510Z,1002.81
2018-08-08T07:34:17.602Z,1002.78
2018-08-08T07:35:17.446Z,1002.80
2018-08-08T07:36:17.601Z,1002.75
2018-08-08T07:37:17.434Z,1002.72
2018-08-08T07:38:17.534Z,1002.68
2018-08-08T07:39:17.374Z,1002.66
2018-08-08T07:40:17.341Z,1002.67
2018-08-08T07:41:17.320Z,1002.63
2018-08-08T07:42:17.443Z,1002.66
2018-08-08T07:43:17.281Z,1002.65
2018-08-08T07:44:17.358Z,1002.58
2018-08-08T07:45:17.235Z,1002.58
2018-08-08T07:46:17.293Z,1002.63
2018-08-08T07:47:17.239Z,1002.64
2018-08-08T07:48:17.274Z,1002.66
2018-08-08T07:49:17.171Z,1002.65
2018-08-08T07:50:17.191Z,1002.68
2018-08-08T07:51:17.129Z,1002.66
2018-08-08T07:52:17.095Z,1002.71
2018-08-08T07:53:17.204Z,1002.75
2018-08-08T07:54:17.060Z,1002.78
2018-08-08T07:55:17.121Z,1002.81
2018-08-08T07:56:17.008Z,1002.83
2018-08-08T07:57:17.127Z,1002.85
2018-08-08T07:58:17.043Z,1002.85
2018-08-08T07:59:17.052Z,1002.82
2018-08-08T08:00:16.934Z,1002.83
2018-08-08T08:01:16.951Z,1002.83
2018-08-08T08:02:16.897Z,1002.84
2018-08-08T08:03:16.978Z,1002.83
2018-08-08T08:04:16.842Z,1002.82
2018-08-08T08:05:16.977Z,1002.81
2018-08-08T08:06:16.833Z,1002.82
2018-08-08T08:07:16.888Z,1002.84
2018-08-08T08:08:16.766Z,1002.85
2018-08-08T08:09:16.799Z,1002.85
2018-08-08T08:10:16.719Z,1002.85
2018-08-08T08:11:16.709Z,1002.83
2018-08-08T08:12:16.682Z,1002.84
2018-08-08T08:13:16.835Z,1002.90
2018-08-08T08:14:16.656Z,1002.84
2018-08-08T08:15:16.757Z,1002.81
2018-08-08T08:16:16.604Z,1002.84
2018-08-08T08:17:16.661Z,1002.89
2018-08-08T08:18:16.576Z,1002.82
2018-08-08T08:19:16.564Z,1002.90
2018-08-08T08:20:16.525Z,1002.90
2018-08-08T08:21:16.575Z,1002.87
2018-08-08T08:22:16.477Z,1002.90
2018-08-08T08:23:16.495Z,1002.88
2018-08-08T08:24:16.458Z,1002.92
2018-08-08T08:25:16.499Z,1002.93
2018-08-08T08:26:16.401Z,1002.89
2018-08-08T08:27:16.460Z,1002.85
2018-08-08T08:28:16.359Z,1002.93
2018-08-08T08:29:03.987Z,1002.91
2018-08-08T08:30:04.085Z,1002.96
2018-08-08T08:31:03.900Z,1002.93
2018-08-08T08:32:04.003Z,1002.95
2018-08-08T08:33:03.863Z,1002.97
2018-08-08T08:34:03.905Z,1003.05
2018-08-08T08:35:03.833Z,1003.07
2018-08-08T08:36:03.954Z,1002.99
2018-08-08T08:37:03.781Z,1002.98
2018-08-08T08:38:03.834Z,1003.02
2018-08-08T08:39:03.721Z,1003.08
2018-08-08T08:40:03.844Z,1003.08
2018-08-08T08:41:03.689Z,1003.16
2018-08-08T08:42:03.774Z,1003.14
2018-08-08T08:43:03.645Z,1003.19
2018-08-08T08:44:03.782Z,1003.19
2018-08-08T08:45:03.609Z,1003.23
2018-08-08T08:46:03.680Z,1003.25
2018-08-08T08:47:03.570Z,1003.24
2018-08-08T08:48:03.696Z,1003.22
2018-08-08T08:49:03.529Z,1003.15
2018-08-08T08:50:03.694Z,1003.24
2018-08-08T08:51:03.493Z,1003.32
2018-08-08T08:52:03.615Z,1003.38
2018-08-08T08:53:03.459Z,1003.36
2018-08-08T08:54:03.535Z,1003.41
2018-08-08T08:55:03.407Z,1003.47
2018-08-08T08:56:03.386Z,1003.46
2018-08-08T08:57:03.456Z,1003.44
2018-08-08T08:58:03.389Z,1003.52
2018-08-08T08:59:03.467Z,1003.54
2018-08-08T09:00:03.320Z,1003.54
2018-08-08T09:01:03.382Z,1003.54
2018-08-08T09:02:49.680Z,1003.59
2018-08-08T09:03:49.786Z,1003.66
2018-08-08T09:04:49.604Z,1003.59
2018-08-08T09:05:49.567Z,1003.65
2018-08-08T09:06:49.556Z,1003.63
2018-08-08T09:07:49.708Z,1003.60
2018-08-08T09:08:49.511Z,1003.65
2018-08-08T09:09:49.608Z,1003.64
2018-08-08T09:10:49.483Z,1003.62
2018-08-08T09:11:49.624Z,1003.62
2018-08-08T09:12:49.418Z,1003.62
2018-08-08T09:13:49.533Z,1003.62
2018-08-08T09:14:49.451Z,1003.62
2018-08-08T09:15:49.497Z,1003.66
2018-08-08T09:16:49.356Z,1003.62
2018-08-08T09:17:49.480Z,1003.59
2018-08-08T09:18:49.354Z,1003.58
2018-08-08T09:19:49.377Z,1003.60
2018-08-08T09:20:49.273Z,1003.58
2018-08-08T09:21:49.404Z,1003.66
2018-08-08T09:22:49.232Z,1003.57
2018-08-08T09:23:49.323Z,1003.54
2018-08-08T09:24:49.171Z,1003.59
2018-08-08T09:25:49.317Z,1003.62
2018-08-08T09:26:49.144Z,1003.57
2018-08-08T09:27:49.246Z,1003.60
2018-08-08T09:28:49.116Z,1003.59
2018-08-08T09:29:49.244Z,1003.57
2018-08-08T09:30:49.108Z,1003.58
2018-08-08T09:32:35.484Z,1003.66
2018-08-08T09:33:35.498Z,1003.76
2018-08-08T09:34:35.424Z,1003.71
2018-08-08T09:35:35.378Z,1003.73
2018-08-08T09:36:35.383Z,1003.77
2018-08-08T09:37:35.335Z,1003.84
2018-08-08T09:38:35.423Z,1003.84
2018-08-08T09:39:35.298Z,1003.81
2018-08-08T09:40:35.474Z,1003.87
2018-08-08T09:41:35.272Z,1003.89
2018-08-08T09:42:35.353Z,1003.94
2018-08-08T09:43:35.218Z,1003.97
2018-08-08T09:44:35.259Z,1003.96
2018-08-08T09:45:35.206Z,1003.95
2018-08-08T09:47:21.151Z,1003.98
2018-08-08T09:48:22.153Z,1003.99
2018-08-08T09:49:21.081Z,1004.02
2018-08-08T09:50:21.148Z,1004.00
2018-08-08T09:51:21.028Z,1004.06
2018-08-08T09:52:21.060Z,1004.04
2018-08-08T09:53:21.005Z,1004.13
2018-08-08T09:54:21.089Z,1004.13
2018-08-08T09:55:20.939Z,1004.11
2018-08-08T09:56:20.976Z,1004.12
2018-08-08T09:57:20.912Z,1004.14
2018-08-08T09:58:20.984Z,1004.12
2018-08-08T09:59:20.867Z,1004.11
2018-08-08T10:00:20.868Z,1004.12
2018-08-08T10:01:20.903Z,1004.21
2018-08-08T10:02:20.813Z,1004.18
2018-08-08T10:03:20.810Z,1004.14
2018-08-08T10:04:20.775Z,1004.14
2018-08-08T10:05:20.828Z,1004.15
2018-08-08T10:06:20.724Z,1004.22
2018-08-08T10:07:20.745Z,1004.20
2018-08-08T10:08:20.681Z,1004.21
2018-08-08T10:09:20.751Z,1004.30
2018-08-08T10:10:20.659Z,1004.27
2018-08-08T10:11:20.663Z,1004.28
2018-08-08T10:12:20.603Z,1004.29
2018-08-08T10:13:20.682Z,1004.31
2018-08-08T10:14:20.557Z,1004.37
2018-08-08T10:15:20.591Z,1004.36
2018-08-08T10:16:20.532Z,1004.35
2018-08-08T10:17:20.614Z,1004.38
2018-08-08T10:18:20.475Z,1004.40
2018-08-08T10:19:20.516Z,1004.41
2018-08-08T10:20:20.457Z,1004.42
2018-08-08T10:21:20.526Z,1004.39
2018-08-08T10:22:20.393Z,1004.38
2018-08-08T10:23:20.446Z,1004.38
2018-08-08T10:24:20.363Z,1004.41
2018-08-08T10:25:20.366Z,1004.44
2018-08-08T10:26:20.313Z,1004.48
2018-08-08T10:27:20.370Z,1004.48
2018-08-08T10:28:20.275Z,1004.48
2018-08-08T10:29:20.373Z,1004.46
2018-08-08T10:30:20.256Z,1004.55
2018-08-08T10:31:20.283Z,1004.56
2018-08-08T10:32:20.206Z,1004.54
2018-08-08T10:33:20.211Z,1004.49
2018-08-08T10:34:20.160Z,1004.53
2018-08-08T10:35:20.406Z,1004.51
2018-08-08T10:36:20.136Z,1004.54
2018-08-08T10:37:20.151Z,1004.57
2018-08-08T10:38:20.086Z,1004.47
2018-08-08T10:39:20.164Z,1004.52
2018-08-08T10:40:20.044Z,1004.53
2018-08-08T10:41:20.048Z,1004.51
2018-08-08T10:42:19.995Z,1004.53
2018-08-08T10:43:20.061Z,1004.54
2018-08-08T10:44:19.952Z,1004.49
2018-08-08T10:45:20.001Z,1004.50
2018-08-08T10:46:19.908Z,1004.56
2018-08-08T10:47:19.985Z,1004.59
2018-08-08T10:48:19.872Z,1004.61
2018-08-08T10:49:19.897Z,1004.55
2018-08-08T10:50:19.829Z,1004.60
2018-08-08T10:51:19.910Z,1004.55
2018-08-08T10:52:19.809Z,1004.59
2018-08-08T10:53:19.839Z,1004.65
2018-08-08T10:54:19.798Z,1004.62
2018-08-08T10:55:19.865Z,1004.64
2018-08-08T10:56:19.726Z,1004.63
2018-08-08T10:57:19.752Z,1004.63
2018-08-08T10:58:19.770Z,1004.69
2018-08-08T10:59:19.756Z,1004.69
2018-08-08T11:00:19.632Z,1004.74
2018-08-08T11:01:19.677Z,1004.76
2018-08-08T11:02:19.626Z,1004.78
2018-08-08T11:03:19.675Z,1004.78
2018-08-08T11:04:19.580Z,1004.85
2018-08-08T11:05:20.659Z,1004.89
2018-08-08T11:06:19.533Z,1004.98
2018-08-08T11:08:05.576Z,1005.06
2018-08-08T11:09:05.743Z,1005.07
2018-08-08T11:10:05.500Z,1005.05
2018-08-08T11:11:05.635Z,1005.04
2018-08-08T11:12:05.466Z,1005.05
2018-08-08T11:13:05.557Z,1005.07
2018-08-08T11:14:05.507Z,1005.08
2018-08-08T11:15:05.405Z,1005.06
2018-08-08T11:16:05.370Z,1005.07
2018-08-08T11:17:05.500Z,1005.10
2018-08-08T11:18:05.335Z,1005.12
2018-08-08T11:19:05.381Z,1005.17
2018-08-08T11:20:51.764Z,1005.14
2018-08-08T11:21:51.753Z,1005.16
2018-08-08T11:22:51.661Z,1005.09
2018-08-08T11:23:51.722Z,1005.13
2018-08-08T11:24:51.613Z,1005.13
2018-08-08T11:25:51.602Z,1005.16
2018-08-08T11:26:51.592Z,1005.22
2018-08-08T11:27:51.624Z,1005.22
2018-08-08T11:28:51.526Z,1005.25
2018-08-08T11:29:51.529Z,1005.21
2018-08-08T11:30:51.504Z,1005.18
2018-08-08T11:31:51.546Z,1005.18
2018-08-08T11:32:51.455Z,1005.18
2018-08-08T11:33:51.426Z,1005.23
2018-08-08T11:34:51.416Z,1005.29
2018-08-08T11:36:37.661Z,1005.32
2018-08-08T11:37:37.668Z,1005.32
2018-08-08T11:38:37.582Z,1005.34
2018-08-08T11:39:37.679Z,1005.30
2018-08-08T11:40:37.564Z,1005.31
2018-08-08T11:41:37.587Z,1005.28
2018-08-08T11:42:37.494Z,1005.28
2018-08-08T11:43:37.493Z,1005.28
2018-08-08T11:44:37.474Z,1005.27
2018-08-08T11:45:37.449Z,1005.25
2018-08-08T11:46:37.606Z,1005.24
2018-08-08T11:47:38.065Z,1005.24
2018-08-08T11:48:37.535Z,1005.29
2018-08-08T11:49:37.357Z,1005.27
2018-08-08T11:50:38.725Z,1005.27
2018-08-08T11:51:37.309Z,1005.27
2018-08-08T11:52:37.330Z,1005.26
2018-08-08T11:53:37.262Z,1005.30
2018-08-08T11:54:37.287Z,1005.29
2018-08-08T11:55:37.240Z,1005.32
2018-08-08T11:56:37.274Z,1005.29
2018-08-08T11:57:37.197Z,1005.30
2018-08-08T11:58:37.211Z,1005.37
2018-08-08T11:59:37.153Z,1005.39
2018-08-08T12:00:37.204Z,1005.38
2018-08-08T12:01:37.107Z,1005.43
2018-08-08T12:02:37.119Z,1005.41
2018-08-08T12:03:37.062Z,1005.40
2018-08-08T12:04:37.124Z,1005.42
2018-08-08T12:05:37.008Z,1005.42
2018-08-08T12:06:37.044Z,1005.45
2018-08-08T12:07:36.973Z,1005.42
2018-08-08T12:09:23.033Z,1005.43
2018-08-08T12:10:22.971Z,1005.38
2018-08-08T12:11:23.040Z,1005.41
2018-08-08T12:12:22.934Z,1005.42
2018-08-08T12:13:22.960Z,1005.34
2018-08-08T12:14:22.889Z,1005.38
2018-08-08T12:15:22.970Z,1005.33
2018-08-08T12:16:22.851Z,1005.38
2018-08-08T12:17:22.883Z,1005.38
2018-08-08T12:18:22.808Z,1005.38
2018-08-08T12:19:22.925Z,1005.39
2018-08-08T12:20:22.787Z,1005.41